sensor_id;sensor_type;location;lat;lon;timestamp;temperature;humidity
51922;DHT22;37948;53.260;6.394;2023-03-31T00:00:45;10.10;99.90
51922;DHT22;37948;53.260;6.394;2023-03-31T00:03:14;10.10;99.90
51922;DHT22;37948;53.260;6.394;2023-03-31T00:05:48;10.10;99.90
51922;DHT22;37948;53.260;6.394;2023-03-31T00:08:17;10.10;99.90
51922;DHT22;37948;53.260;6.394;2023-03-31T00:10:44;10.00;99.90
51922;DHT22;37948;53.260;6.394;2023-03-31T00:13:11;10.10;99.90
51922;DHT22;37948;53.260;6.394;2023-03-31T00:15:37;10.00;99.90
51922;DHT22;37948;53.260;6.394;2023-03-31T00:18:03;10.10;99.90
51922;DHT22;37948;53.260;6.394;2023-03-31T00:20:29;10.10;99.90
51922;DHT22;37948;53.260;6.394;2023-03-31T00:22:58;10.10;99.90
51922;DHT22;37948;53.260;6.394;2023-03-31T00:25:26;10.00;99.90
51922;DHT22;37948;53.260;6.394;2023-03-31T00:27:51;10.10;99.90
51922;DHT22;37948;53.260;6.394;2023-03-31T00:30:17;10.10;99.90
51922;DHT22;37948;53.260;6.394;2023-03-31T00:32:43;10.10;99.90
51922;DHT22;37948;53.260;6.394;2023-03-31T00:35:09;10.10;99.90
51922;DHT22;37948;53.260;6.394;2023-03-31T00:37:34;10.10;99.90
51922;DHT22;37948;53.260;6.394;2023-03-31T00:40:00;10.10;99.90
51922;DHT22;37948;53.260;6.394;2023-03-31T00:42:26;10.10;99.90
51922;DHT22;37948;53.260;6.394;2023-03-31T00:47:40;10.00;99.90
51922;DHT22;37948;53.260;6.394;2023-03-31T00:50:15;10.00;99.90
51922;DHT22;37948;53.260;6.394;2023-03-31T00:52:45;10.00;99.90
51922;DHT22;37948;53.260;6.394;2023-03-31T00:55:16;10.00;99.90
51922;DHT22;37948;53.260;6.394;2023-03-31T00:57:45;9.90;99.90
51922;DHT22;37948;53.260;6.394;2023-03-31T01:00:14;9.90;99.90
51922;DHT22;37948;53.260;6.394;2023-03-31T01:02:54;9.90;99.90
51922;DHT22;37948;53.260;6.394;2023-03-31T01:05:26;9.90;99.90
51922;DHT22;37948;53.260;6.394;2023-03-31T01:07:53;9.80;99.90
51922;DHT22;37948;53.260;6.394;2023-03-31T01:10:20;9.80;99.90
51922;DHT22;37948;53.260;6.394;2023-03-31T01:12:50;9.80;99.90
51922;DHT22;37948;53.260;6.394;2023-03-31T01:15:17;9.80;99.90
51922;DHT22;37948;53.260;6.394;2023-03-31T01:17:43;9.80;99.90
51922;DHT22;37948;53.260;6.394;2023-03-31T01:37:21;9.70;99.90
51922;DHT22;37948;53.260;6.394;2023-03-31T01:40:08;9.70;99.90
51922;DHT22;37948;53.260;6.394;2023-03-31T01:42:58;9.60;99.90
51922;DHT22;37948;53.260;6.394;2023-03-31T01:45:53;9.60;99.90
51922;DHT22;37948;53.260;6.394;2023-03-31T01:48:33;9.60;99.90
51922;DHT22;37948;53.260;6.394;2023-03-31T01:51:05;9.70;99.90
51922;DHT22;37948;53.260;6.394;2023-03-31T01:53:44;9.60;99.90
51922;DHT22;37948;53.260;6.394;2023-03-31T01:56:21;9.60;99.90
51922;DHT22;37948;53.260;6.394;2023-03-31T01:58:55;9.60;99.90
51922;DHT22;37948;53.260;6.394;2023-03-31T02:01:42;9.60;99.90
51922;DHT22;37948;53.260;6.394;2023-03-31T02:04:19;9.60;99.90
51922;DHT22;37948;53.260;6.394;2023-03-31T02:06:50;9.60;99.90
51922;DHT22;37948;53.260;6.394;2023-03-31T02:09:21;9.60;99.90
51922;DHT22;37948;53.260;6.394;2023-03-31T02:11:49;9.60;99.90
51922;DHT22;37948;53.260;6.394;2023-03-31T02:14:20;9.50;99.90
51922;DHT22;37948;53.260;6.394;2023-03-31T02:16:49;9.60;99.90
51922;DHT22;37948;53.260;6.394;2023-03-31T02:19:17;9.60;99.90
51922;DHT22;37948;53.260;6.394;2023-03-31T02:21:48;9.50;99.90
51922;DHT22;37948;53.260;6.394;2023-03-31T02:24:16;9.60;99.90
51922;DHT22;37948;53.260;6.394;2023-03-31T02:27:16;9.60;99.90
51922;DHT22;37948;53.260;6.394;2023-03-31T02:29:38;9.60;99.90
51922;DHT22;37948;53.260;6.394;2023-03-31T02:32:31;9.60;99.90
51922;DHT22;37948;53.260;6.394;2023-03-31T02:35:00;9.60;99.90
51922;DHT22;37948;53.260;6.394;2023-03-31T02:37:27;9.60;99.90
51922;DHT22;37948;53.260;6.394;2023-03-31T02:39:56;9.60;99.90
51922;DHT22;37948;53.260;6.394;2023-03-31T02:42:23;9.60;99.90
51922;DHT22;37948;53.260;6.394;2023-03-31T02:44:49;9.60;99.90
51922;DHT22;37948;53.260;6.394;2023-03-31T02:47:17;9.60;99.90
51922;DHT22;37948;53.260;6.394;2023-03-31T02:49:50;9.60;99.90
51922;DHT22;37948;53.260;6.394;2023-03-31T03:06:31;9.70;99.90
51922;DHT22;37948;53.260;6.394;2023-03-31T03:09:31;9.80;99.90
51922;DHT22;37948;53.260;6.394;2023-03-31T03:12:24;9.70;99.90
51922;DHT22;37948;53.260;6.394;2023-03-31T03:15:10;9.70;99.90
51922;DHT22;37948;53.260;6.394;2023-03-31T03:17:41;9.70;99.90
51922;DHT22;37948;53.260;6.394;2023-03-31T03:20:08;9.70;99.90
51922;DHT22;37948;53.260;6.394;2023-03-31T03:22:36;9.70;99.90
51922;DHT22;37948;53.260;6.394;2023-03-31T03:25:06;9.80;99.90
51922;DHT22;37948;53.260;6.394;2023-03-31T03:27:33;9.70;99.90
51922;DHT22;37948;53.260;6.394;2023-03-31T03:30:01;9.70;99.90
51922;DHT22;37948;53.260;6.394;2023-03-31T03:32:28;9.70;99.90
51922;DHT22;37948;53.260;6.394;2023-03-31T03:34:53;9.70;99.90
51922;DHT22;37948;53.260;6.394;2023-03-31T03:37:19;9.70;99.90
51922;DHT22;37948;53.260;6.394;2023-03-31T03:39:44;9.70;99.90
51922;DHT22;37948;53.260;6.394;2023-03-31T03:42:10;9.70;99.90
51922;DHT22;37948;53.260;6.394;2023-03-31T03:44:37;9.80;99.90
51922;DHT22;37948;53.260;6.394;2023-03-31T03:47:03;9.70;99.90
51922;DHT22;37948;53.260;6.394;2023-03-31T03:49:28;9.80;99.90
51922;DHT22;37948;53.260;6.394;2023-03-31T03:51:54;9.80;99.90
51922;DHT22;37948;53.260;6.394;2023-03-31T03:54:20;9.80;99.90
51922;DHT22;37948;53.260;6.394;2023-03-31T03:56:45;9.80;99.90
51922;DHT22;37948;53.260;6.394;2023-03-31T03:59:11;9.90;99.90
51922;DHT22;37948;53.260;6.394;2023-03-31T04:01:37;9.80;99.90
51922;DHT22;37948;53.260;6.394;2023-03-31T04:04:03;9.80;99.90
51922;DHT22;37948;53.260;6.394;2023-03-31T04:06:28;9.80;99.90
51922;DHT22;37948;53.260;6.394;2023-03-31T04:08:54;9.80;99.90
51922;DHT22;37948;53.260;6.394;2023-03-31T04:11:20;9.80;99.90
51922;DHT22;37948;53.260;6.394;2023-03-31T04:13:46;9.80;99.90
51922;DHT22;37948;53.260;6.394;2023-03-31T04:16:12;9.80;99.90
51922;DHT22;37948;53.260;6.394;2023-03-31T04:18:38;9.90;99.90
51922;DHT22;37948;53.260;6.394;2023-03-31T04:21:14;9.90;99.90
51922;DHT22;37948;53.260;6.394;2023-03-31T04:23:47;9.90;99.90
51922;DHT22;37948;53.260;6.394;2023-03-31T04:26:16;9.90;99.90
51922;DHT22;37948;53.260;6.394;2023-03-31T04:28:43;9.80;99.90
51922;DHT22;37948;53.260;6.394;2023-03-31T04:31:12;9.80;99.90
51922;DHT22;37948;53.260;6.394;2023-03-31T04:33:53;9.90;99.90
51922;DHT22;37948;53.260;6.394;2023-03-31T04:36:19;9.90;99.90
51922;DHT22;37948;53.260;6.394;2023-03-31T04:38:47;9.90;99.90
51922;DHT22;37948;53.260;6.394;2023-03-31T04:41:15;9.80;99.90
51922;DHT22;37948;53.260;6.394;2023-03-31T04:43:42;9.90;99.90
51922;DHT22;37948;53.260;6.394;2023-03-31T04:46:07;9.90;99.90
51922;DHT22;37948;53.260;6.394;2023-03-31T04:48:33;9.90;99.90
51922;DHT22;37948;53.260;6.394;2023-03-31T04:50:59;9.80;99.90
51922;DHT22;37948;53.260;6.394;2023-03-31T04:53:25;9.90;99.90
51922;DHT22;37948;53.260;6.394;2023-03-31T04:55:51;9.90;99.90
51922;DHT22;37948;53.260;6.394;2023-03-31T04:58:17;9.90;99.90
51922;DHT22;37948;53.260;6.394;2023-03-31T05:00:42;9.90;99.90
51922;DHT22;37948;53.260;6.394;2023-03-31T05:03:08;9.90;99.90
51922;DHT22;37948;53.260;6.394;2023-03-31T05:05:34;9.90;99.90
51922;DHT22;37948;53.260;6.394;2023-03-31T05:08:00;9.90;99.90
51922;DHT22;37948;53.260;6.394;2023-03-31T05:10:26;9.90;99.90
51922;DHT22;37948;53.260;6.394;2023-03-31T05:12:54;9.90;99.90
51922;DHT22;37948;53.260;6.394;2023-03-31T05:15:20;9.90;99.90
51922;DHT22;37948;53.260;6.394;2023-03-31T05:17:46;9.90;99.90
51922;DHT22;37948;53.260;6.394;2023-03-31T05:20:12;10.00;99.90
51922;DHT22;37948;53.260;6.394;2023-03-31T05:22:39;10.00;99.90
51922;DHT22;37948;53.260;6.394;2023-03-31T05:25:07;10.00;99.90
51922;DHT22;37948;53.260;6.394;2023-03-31T05:27:34;9.90;99.90
51922;DHT22;37948;53.260;6.394;2023-03-31T05:30:01;10.00;99.90
51922;DHT22;37948;53.260;6.394;2023-03-31T05:32:27;10.00;99.90
51922;DHT22;37948;53.260;6.394;2023-03-31T05:34:53;10.00;99.90
51922;DHT22;37948;53.260;6.394;2023-03-31T05:37:22;10.00;99.90
51922;DHT22;37948;53.260;6.394;2023-03-31T05:39:49;10.00;99.90
51922;DHT22;37948;53.260;6.394;2023-03-31T05:42:14;10.00;99.90
51922;DHT22;37948;53.260;6.394;2023-03-31T05:44:40;10.10;99.90
51922;DHT22;37948;53.260;6.394;2023-03-31T05:47:06;10.00;99.90
51922;DHT22;37948;53.260;6.394;2023-03-31T05:49:31;10.00;99.90
51922;DHT22;37948;53.260;6.394;2023-03-31T05:51:57;10.00;99.90
51922;DHT22;37948;53.260;6.394;2023-03-31T05:54:23;10.00;99.90
51922;DHT22;37948;53.260;6.394;2023-03-31T05:56:48;10.00;99.90
51922;DHT22;37948;53.260;6.394;2023-03-31T05:59:14;10.00;99.90
51922;DHT22;37948;53.260;6.394;2023-03-31T06:01:40;10.10;99.90
51922;DHT22;37948;53.260;6.394;2023-03-31T06:04:06;10.10;99.90
51922;DHT22;37948;53.260;6.394;2023-03-31T06:06:32;10.10;99.90
51922;DHT22;37948;53.260;6.394;2023-03-31T06:08:59;10.00;99.90
51922;DHT22;37948;53.260;6.394;2023-03-31T06:11:25;10.00;99.90
51922;DHT22;37948;53.260;6.394;2023-03-31T06:13:51;10.00;99.90
51922;DHT22;37948;53.260;6.394;2023-03-31T06:16:17;10.00;99.90
51922;DHT22;37948;53.260;6.394;2023-03-31T06:18:43;10.00;99.90
51922;DHT22;37948;53.260;6.394;2023-03-31T06:21:12;10.00;99.90
51922;DHT22;37948;53.260;6.394;2023-03-31T06:23:38;10.10;99.90
51922;DHT22;37948;53.260;6.394;2023-03-31T06:26:07;10.10;99.90
51922;DHT22;37948;53.260;6.394;2023-03-31T06:28:36;10.10;99.90
51922;DHT22;37948;53.260;6.394;2023-03-31T06:31:06;10.10;99.90
51922;DHT22;37948;53.260;6.394;2023-03-31T06:33:33;10.10;99.90
51922;DHT22;37948;53.260;6.394;2023-03-31T06:35:59;10.10;99.90
51922;DHT22;37948;53.260;6.394;2023-03-31T06:38:26;10.10;99.90
51922;DHT22;37948;53.260;6.394;2023-03-31T06:40:52;10.10;99.90
51922;DHT22;37948;53.260;6.394;2023-03-31T06:43:20;10.10;99.90
51922;DHT22;37948;53.260;6.394;2023-03-31T06:45:46;10.10;99.90
51922;DHT22;37948;53.260;6.394;2023-03-31T06:48:12;10.10;99.90
51922;DHT22;37948;53.260;6.394;2023-03-31T06:50:39;10.10;99.90
51922;DHT22;37948;53.260;6.394;2023-03-31T06:53:05;10.10;99.90
51922;DHT22;37948;53.260;6.394;2023-03-31T06:55:31;10.10;99.90
51922;DHT22;37948;53.260;6.394;2023-03-31T06:57:58;10.10;99.90
51922;DHT22;37948;53.260;6.394;2023-03-31T07:00:24;10.20;99.90
51922;DHT22;37948;53.260;6.394;2023-03-31T07:02:54;10.20;99.90
51922;DHT22;37948;53.260;6.394;2023-03-31T07:05:20;10.20;99.90
51922;DHT22;37948;53.260;6.394;2023-03-31T07:07:52;10.10;99.90
51922;DHT22;37948;53.260;6.394;2023-03-31T07:10:18;10.10;99.90
51922;DHT22;37948;53.260;6.394;2023-03-31T07:12:44;10.10;99.90
51922;DHT22;37948;53.260;6.394;2023-03-31T07:15:10;10.20;99.90
51922;DHT22;37948;53.260;6.394;2023-03-31T07:17:35;10.10;99.90
51922;DHT22;37948;53.260;6.394;2023-03-31T07:20:03;10.10;99.90
51922;DHT22;37948;53.260;6.394;2023-03-31T07:22:33;10.10;99.90
51922;DHT22;37948;53.260;6.394;2023-03-31T07:24:59;10.10;99.90
51922;DHT22;37948;53.260;6.394;2023-03-31T07:27:25;10.10;99.90
51922;DHT22;37948;53.260;6.394;2023-03-31T07:29:54;10.10;99.90
51922;DHT22;37948;53.260;6.394;2023-03-31T07:32:20;10.10;99.90
51922;DHT22;37948;53.260;6.394;2023-03-31T07:34:47;10.10;99.90
51922;DHT22;37948;53.260;6.394;2023-03-31T07:37:13;10.10;99.90
51922;DHT22;37948;53.260;6.394;2023-03-31T07:39:39;10.10;99.90
51922;DHT22;37948;53.260;6.394;2023-03-31T07:42:04;10.10;99.90
51922;DHT22;37948;53.260;6.394;2023-03-31T07:44:35;10.20;99.90
51922;DHT22;37948;53.260;6.394;2023-03-31T07:47:01;10.20;99.90
51922;DHT22;37948;53.260;6.394;2023-03-31T07:49:29;10.20;99.90
51922;DHT22;37948;53.260;6.394;2023-03-31T07:51:55;10.20;99.90
51922;DHT22;37948;53.260;6.394;2023-03-31T07:54:21;10.20;99.90
51922;DHT22;37948;53.260;6.394;2023-03-31T07:56:47;10.20;99.90
51922;DHT22;37948;53.260;6.394;2023-03-31T07:59:12;10.20;99.90
51922;DHT22;37948;53.260;6.394;2023-03-31T08:01:38;10.20;99.90
51922;DHT22;37948;53.260;6.394;2023-03-31T08:04:04;10.20;99.90
51922;DHT22;37948;53.260;6.394;2023-03-31T08:06:30;10.20;99.90
51922;DHT22;37948;53.260;6.394;2023-03-31T08:08:57;10.20;99.90
51922;DHT22;37948;53.260;6.394;2023-03-31T08:11:23;10.20;99.90
51922;DHT22;37948;53.260;6.394;2023-03-31T08:13:49;10.20;99.90
51922;DHT22;37948;53.260;6.394;2023-03-31T08:16:15;10.20;99.90
51922;DHT22;37948;53.260;6.394;2023-03-31T08:18:41;10.20;99.90
51922;DHT22;37948;53.260;6.394;2023-03-31T08:21:07;10.20;99.90
51922;DHT22;37948;53.260;6.394;2023-03-31T08:23:36;10.20;99.90
51922;DHT22;37948;53.260;6.394;2023-03-31T08:26:12;10.20;99.90
51922;DHT22;37948;53.260;6.394;2023-03-31T08:28:38;10.20;99.90
51922;DHT22;37948;53.260;6.394;2023-03-31T08:31:07;10.20;99.90
51922;DHT22;37948;53.260;6.394;2023-03-31T08:33:35;10.20;99.90
51922;DHT22;37948;53.260;6.394;2023-03-31T08:36:06;10.20;99.90
51922;DHT22;37948;53.260;6.394;2023-03-31T08:38:35;10.30;99.90
51922;DHT22;37948;53.260;6.394;2023-03-31T08:41:09;10.30;99.90
51922;DHT22;37948;53.260;6.394;2023-03-31T08:43:43;10.30;99.90
51922;DHT22;37948;53.260;6.394;2023-03-31T08:46:12;10.30;99.90
51922;DHT22;37948;53.260;6.394;2023-03-31T08:48:44;10.30;99.90
51922;DHT22;37948;53.260;6.394;2023-03-31T08:51:34;10.30;99.90
51922;DHT22;37948;53.260;6.394;2023-03-31T08:54:11;10.30;99.90
51922;DHT22;37948;53.260;6.394;2023-03-31T08:56:41;10.30;99.90
51922;DHT22;37948;53.260;6.394;2023-03-31T08:59:35;10.40;99.90
51922;DHT22;37948;53.260;6.394;2023-03-31T09:02:28;10.40;99.90
51922;DHT22;37948;53.260;6.394;2023-03-31T09:05:34;10.40;99.90
51922;DHT22;37948;53.260;6.394;2023-03-31T09:08:18;10.40;99.90
51922;DHT22;37948;53.260;6.394;2023-03-31T09:10:52;10.40;99.90
51922;DHT22;37948;53.260;6.394;2023-03-31T09:16:23;10.50;99.90
51922;DHT22;37948;53.260;6.394;2023-03-31T09:18:52;10.50;99.90
51922;DHT22;37948;53.260;6.394;2023-03-31T09:21:31;10.50;99.90
51922;DHT22;37948;53.260;6.394;2023-03-31T09:24:18;10.60;99.90
51922;DHT22;37948;53.260;6.394;2023-03-31T09:26:54;10.60;99.90
51922;DHT22;37948;53.260;6.394;2023-03-31T09:29:51;10.60;99.90
51922;DHT22;37948;53.260;6.394;2023-03-31T09:32:20;10.60;99.90
51922;DHT22;37948;53.260;6.394;2023-03-31T09:34:51;10.60;99.90
51922;DHT22;37948;53.260;6.394;2023-03-31T09:37:17;10.60;99.90
51922;DHT22;37948;53.260;6.394;2023-03-31T09:39:43;10.60;99.90
51922;DHT22;37948;53.260;6.394;2023-03-31T09:42:12;10.50;99.90
51922;DHT22;37948;53.260;6.394;2023-03-31T09:44:46;10.60;99.90
51922;DHT22;37948;53.260;6.394;2023-03-31T09:47:28;10.60;99.90
51922;DHT22;37948;53.260;6.394;2023-03-31T09:49:56;10.70;99.90
51922;DHT22;37948;53.260;6.394;2023-03-31T09:52:37;10.70;99.90
51922;DHT22;37948;53.260;6.394;2023-03-31T09:55:15;10.80;99.90
51922;DHT22;37948;53.260;6.394;2023-03-31T09:57:42;10.80;99.90
51922;DHT22;37948;53.260;6.394;2023-03-31T10:02:46;10.90;99.90
51922;DHT22;37948;53.260;6.394;2023-03-31T10:05:31;10.90;99.90
51922;DHT22;37948;53.260;6.394;2023-03-31T10:10:50;11.00;99.90
51922;DHT22;37948;53.260;6.394;2023-03-31T10:13:20;11.10;99.90
51922;DHT22;37948;53.260;6.394;2023-03-31T10:15:51;11.20;99.90
51922;DHT22;37948;53.260;6.394;2023-03-31T10:18:19;11.20;99.90
51922;DHT22;37948;53.260;6.394;2023-03-31T10:20:51;11.30;99.90
51922;DHT22;37948;53.260;6.394;2023-03-31T10:23:23;11.30;99.90
51922;DHT22;37948;53.260;6.394;2023-03-31T10:25:51;11.50;99.90
51922;DHT22;37948;53.260;6.394;2023-03-31T10:28:18;11.40;99.90
51922;DHT22;37948;53.260;6.394;2023-03-31T10:30:53;11.40;99.90
51922;DHT22;37948;53.260;6.394;2023-03-31T10:33:23;11.40;99.90
51922;DHT22;37948;53.260;6.394;2023-03-31T10:35:55;11.40;99.90
51922;DHT22;37948;53.260;6.394;2023-03-31T10:38:43;11.30;99.90
51922;DHT22;37948;53.260;6.394;2023-03-31T10:41:10;11.30;99.90
51922;DHT22;37948;53.260;6.394;2023-03-31T10:43:52;11.30;99.90
51922;DHT22;37948;53.260;6.394;2023-03-31T10:46:19;11.30;99.90
51922;DHT22;37948;53.260;6.394;2023-03-31T10:48:46;11.40;99.90
51922;DHT22;37948;53.260;6.394;2023-03-31T10:51:20;11.40;99.90
51922;DHT22;37948;53.260;6.394;2023-03-31T10:53:54;11.40;99.90
51922;DHT22;37948;53.260;6.394;2023-03-31T10:56:39;11.50;99.90
51922;DHT22;37948;53.260;6.394;2023-03-31T10:59:17;11.50;99.90
51922;DHT22;37948;53.260;6.394;2023-03-31T11:04:51;11.60;99.90
51922;DHT22;37948;53.260;6.394;2023-03-31T11:12:43;11.70;99.90
51922;DHT22;37948;53.260;6.394;2023-03-31T11:23:41;11.90;99.90
51922;DHT22;37948;53.260;6.394;2023-03-31T11:28:48;11.90;99.90
51922;DHT22;37948;53.260;6.394;2023-03-31T11:34:19;12.10;99.90
51922;DHT22;37948;53.260;6.394;2023-03-31T11:39:49;12.20;99.90
51922;DHT22;37948;53.260;6.394;2023-03-31T11:42:32;12.20;99.90
51922;DHT22;37948;53.260;6.394;2023-03-31T11:45:28;12.20;99.90
51922;DHT22;37948;53.260;6.394;2023-03-31T11:48:00;12.30;99.90
51922;DHT22;37948;53.260;6.394;2023-03-31T11:50:32;12.40;99.90
51922;DHT22;37948;53.260;6.394;2023-03-31T11:53:05;12.40;99.90
51922;DHT22;37948;53.260;6.394;2023-03-31T11:55:32;12.50;99.90
51922;DHT22;37948;53.260;6.394;2023-03-31T11:58:01;12.50;99.90
51922;DHT22;37948;53.260;6.394;2023-03-31T12:00:40;12.50;99.90
51922;DHT22;37948;53.260;6.394;2023-03-31T12:03:12;12.60;99.90
51922;DHT22;37948;53.260;6.394;2023-03-31T12:05:52;12.60;99.90
51922;DHT22;37948;53.260;6.394;2023-03-31T12:08:42;12.70;99.90
51922;DHT22;37948;53.260;6.394;2023-03-31T12:14:17;12.80;99.90
51922;DHT22;37948;53.260;6.394;2023-03-31T12:16:48;12.70;99.90
51922;DHT22;37948;53.260;6.394;2023-03-31T12:19:56;12.70;99.90
51922;DHT22;37948;53.260;6.394;2023-03-31T12:22:32;12.70;99.90
51922;DHT22;37948;53.260;6.394;2023-03-31T12:25:02;12.60;99.90
51922;DHT22;37948;53.260;6.394;2023-03-31T12:27:38;12.50;99.90
51922;DHT22;37948;53.260;6.394;2023-03-31T12:30:34;12.50;99.90
51922;DHT22;37948;53.260;6.394;2023-03-31T12:33:24;12.40;99.90
51922;DHT22;37948;53.260;6.394;2023-03-31T12:36:17;12.40;99.90
51922;DHT22;37948;53.260;6.394;2023-03-31T12:44:56;12.20;99.90
51922;DHT22;37948;53.260;6.394;2023-03-31T12:52:59;12.00;99.90
51922;DHT22;37948;53.260;6.394;2023-03-31T13:09:04;12.10;99.90
51922;DHT22;37948;53.260;6.394;2023-03-31T13:14:02;12.30;99.90
51922;DHT22;37948;53.260;6.394;2023-03-31T13:16:30;12.30;99.90
51922;DHT22;37948;53.260;6.394;2023-03-31T13:18:56;12.40;99.90
51922;DHT22;37948;53.260;6.394;2023-03-31T13:21:22;12.40;99.90
51922;DHT22;37948;53.260;6.394;2023-03-31T13:23:49;12.40;99.90
51922;DHT22;37948;53.260;6.394;2023-03-31T13:26:37;12.50;99.90
51922;DHT22;37948;53.260;6.394;2023-03-31T13:34:40;12.70;99.90
51922;DHT22;37948;53.260;6.394;2023-03-31T13:37:10;12.70;99.90
51922;DHT22;37948;53.260;6.394;2023-03-31T13:39:59;12.60;99.90
51922;DHT22;37948;53.260;6.394;2023-03-31T13:42:49;12.60;99.90
51922;DHT22;37948;53.260;6.394;2023-03-31T13:45:58;12.50;99.90
51922;DHT22;37948;53.260;6.394;2023-03-31T14:00:00;11.70;99.90
51922;DHT22;37948;53.260;6.394;2023-03-31T14:02:37;11.60;99.90
51922;DHT22;37948;53.260;6.394;2023-03-31T14:05:35;11.50;99.90
51922;DHT22;37948;53.260;6.394;2023-03-31T14:10:35;11.30;99.90
51922;DHT22;37948;53.260;6.394;2023-03-31T14:13:08;11.30;99.90
51922;DHT22;37948;53.260;6.394;2023-03-31T14:15:38;11.20;99.90
51922;DHT22;37948;53.260;6.394;2023-03-31T14:18:06;11.30;99.90
51922;DHT22;37948;53.260;6.394;2023-03-31T14:20:47;11.30;99.90
51922;DHT22;37948;53.260;6.394;2023-03-31T14:26:05;11.50;99.90
51922;DHT22;37948;53.260;6.394;2023-03-31T14:34:55;11.70;99.90
51922;DHT22;37948;53.260;6.394;2023-03-31T14:37:25;11.80;99.90
51922;DHT22;37948;53.260;6.394;2023-03-31T14:39:54;11.90;99.90
51922;DHT22;37948;53.260;6.394;2023-03-31T14:42:28;12.00;99.90
51922;DHT22;37948;53.260;6.394;2023-03-31T14:45:03;12.10;99.90
51922;DHT22;37948;53.260;6.394;2023-03-31T14:47:29;12.20;99.90
51922;DHT22;37948;53.260;6.394;2023-03-31T14:50:00;12.30;99.90
51922;DHT22;37948;53.260;6.394;2023-03-31T14:52:30;12.40;99.90
51922;DHT22;37948;53.260;6.394;2023-03-31T14:54:58;12.50;99.90
51922;DHT22;37948;53.260;6.394;2023-03-31T14:57:32;12.40;99.90
51922;DHT22;37948;53.260;6.394;2023-03-31T15:00:00;12.30;99.90
51922;DHT22;37948;53.260;6.394;2023-03-31T15:02:34;12.30;99.90
51922;DHT22;37948;53.260;6.394;2023-03-31T15:05:02;12.30;99.90
51922;DHT22;37948;53.260;6.394;2023-03-31T15:07:28;12.20;99.90
51922;DHT22;37948;53.260;6.394;2023-03-31T15:09:54;12.20;99.90
51922;DHT22;37948;53.260;6.394;2023-03-31T15:12:21;12.20;99.90
51922;DHT22;37948;53.260;6.394;2023-03-31T15:14:51;12.20;99.90
51922;DHT22;37948;53.260;6.394;2023-03-31T15:17:21;12.20;99.90
51922;DHT22;37948;53.260;6.394;2023-03-31T15:19:58;12.20;99.90
51922;DHT22;37948;53.260;6.394;2023-03-31T15:22:27;12.20;99.90
51922;DHT22;37948;53.260;6.394;2023-03-31T15:24:53;12.20;99.90
51922;DHT22;37948;53.260;6.394;2023-03-31T15:27:34;12.10;99.90
51922;DHT22;37948;53.260;6.394;2023-03-31T15:30:07;12.10;99.90
51922;DHT22;37948;53.260;6.394;2023-03-31T15:32:37;12.10;99.90
51922;DHT22;37948;53.260;6.394;2023-03-31T15:35:05;12.10;99.90
51922;DHT22;37948;53.260;6.394;2023-03-31T15:37:50;12.10;99.90
51922;DHT22;37948;53.260;6.394;2023-03-31T15:42:45;11.90;99.90
51922;DHT22;37948;53.260;6.394;2023-03-31T15:48:32;11.90;99.90
51922;DHT22;37948;53.260;6.394;2023-03-31T15:51:06;11.80;99.90
51922;DHT22;37948;53.260;6.394;2023-03-31T15:53:37;11.80;99.90
51922;DHT22;37948;53.260;6.394;2023-03-31T15:56:03;11.80;99.90
51922;DHT22;37948;53.260;6.394;2023-03-31T15:59:05;11.70;99.90
51922;DHT22;37948;53.260;6.394;2023-03-31T16:01:49;11.70;99.90
51922;DHT22;37948;53.260;6.394;2023-03-31T16:04:16;11.70;99.90
51922;DHT22;37948;53.260;6.394;2023-03-31T16:09:48;11.70;99.90
51922;DHT22;37948;53.260;6.394;2023-03-31T16:12:25;11.80;99.90
51922;DHT22;37948;53.260;6.394;2023-03-31T16:15:13;11.70;99.90
51922;DHT22;37948;53.260;6.394;2023-03-31T16:20:30;11.70;99.90
51922;DHT22;37948;53.260;6.394;2023-03-31T16:22:58;11.70;99.90
51922;DHT22;37948;53.260;6.394;2023-03-31T16:25:29;11.70;99.90
51922;DHT22;37948;53.260;6.394;2023-03-31T16:27:57;11.70;99.90
51922;DHT22;37948;53.260;6.394;2023-03-31T16:30:39;11.70;99.90
51922;DHT22;37948;53.260;6.394;2023-03-31T16:33:12;11.70;99.90
51922;DHT22;37948;53.260;6.394;2023-03-31T16:35:46;11.70;99.90
51922;DHT22;37948;53.260;6.394;2023-03-31T16:38:22;11.80;99.90
51922;DHT22;37948;53.260;6.394;2023-03-31T16:40:50;11.70;99.90
51922;DHT22;37948;53.260;6.394;2023-03-31T16:43:20;11.80;99.90
51922;DHT22;37948;53.260;6.394;2023-03-31T16:45:54;11.80;99.90
51922;DHT22;37948;53.260;6.394;2023-03-31T16:48:21;11.80;99.90
51922;DHT22;37948;53.260;6.394;2023-03-31T16:50:52;11.80;99.90
51922;DHT22;37948;53.260;6.394;2023-03-31T16:53:24;11.80;99.90
51922;DHT22;37948;53.260;6.394;2023-03-31T16:55:50;11.70;99.90
51922;DHT22;37948;53.260;6.394;2023-03-31T16:58:16;11.70;99.90
51922;DHT22;37948;53.260;6.394;2023-03-31T17:00:42;11.70;99.90
51922;DHT22;37948;53.260;6.394;2023-03-31T17:03:10;11.70;99.90
51922;DHT22;37948;53.260;6.394;2023-03-31T17:05:47;11.60;99.90
51922;DHT22;37948;53.260;6.394;2023-03-31T17:08:14;11.60;99.90
51922;DHT22;37948;53.260;6.394;2023-03-31T17:10:41;11.60;99.90
51922;DHT22;37948;53.260;6.394;2023-03-31T17:13:08;11.50;99.90
51922;DHT22;37948;53.260;6.394;2023-03-31T17:15:34;11.60;99.90
51922;DHT22;37948;53.260;6.394;2023-03-31T17:18:01;11.50;99.90
51922;DHT22;37948;53.260;6.394;2023-03-31T17:20:28;11.60;99.90
51922;DHT22;37948;53.260;6.394;2023-03-31T17:22:55;11.50;99.90
51922;DHT22;37948;53.260;6.394;2023-03-31T17:25:21;11.50;99.90
51922;DHT22;37948;53.260;6.394;2023-03-31T17:27:47;11.50;99.90
51922;DHT22;37948;53.260;6.394;2023-03-31T17:30:13;11.50;99.90
51922;DHT22;37948;53.260;6.394;2023-03-31T17:32:39;11.50;99.90
51922;DHT22;37948;53.260;6.394;2023-03-31T17:35:05;11.50;99.90
51922;DHT22;37948;53.260;6.394;2023-03-31T17:37:32;11.50;99.90
51922;DHT22;37948;53.260;6.394;2023-03-31T17:39:58;11.50;99.90
51922;DHT22;37948;53.260;6.394;2023-03-31T17:42:24;11.50;99.90
51922;DHT22;37948;53.260;6.394;2023-03-31T17:44:49;11.50;99.90
51922;DHT22;37948;53.260;6.394;2023-03-31T17:47:18;11.50;99.90
51922;DHT22;37948;53.260;6.394;2023-03-31T17:49:44;11.40;99.90
51922;DHT22;37948;53.260;6.394;2023-03-31T17:52:11;11.40;99.90
51922;DHT22;37948;53.260;6.394;2023-03-31T17:54:36;11.40;99.90
51922;DHT22;37948;53.260;6.394;2023-03-31T17:57:02;11.40;99.90
51922;DHT22;37948;53.260;6.394;2023-03-31T17:59:28;11.30;99.90
51922;DHT22;37948;53.260;6.394;2023-03-31T18:01:54;11.30;99.90
51922;DHT22;37948;53.260;6.394;2023-03-31T18:04:19;11.20;99.90
51922;DHT22;37948;53.260;6.394;2023-03-31T18:06:45;11.10;99.90
51922;DHT22;37948;53.260;6.394;2023-03-31T18:09:13;11.10;99.90
51922;DHT22;37948;53.260;6.394;2023-03-31T18:11:39;11.10;99.90
51922;DHT22;37948;53.260;6.394;2023-03-31T18:14:05;11.00;99.90
51922;DHT22;37948;53.260;6.394;2023-03-31T18:16:31;11.00;99.90